KPTV

Details ICAO KPTV
Name PORTERVILLE MUNI
Region United States
Timezone America/Los_Angeles (UTC-8.0)
Plans Departing 2
Arriving 2
Stats Elevation 442 ft / 135 m (AMSL)
Location 36.029607° -119.062732°
Runways 1
Magnetic Variation 12.550° E
Sunrise 2017-12-18 15:03:03 UTC / 2017-12-18 07:03:03 Local
Sunset 2017-12-19 00:45:42 UTC / 2017-12-18 16:45:42 Local
Advertisement - Login to hide

Runways

ID Width Length Bearing (true) Bearing (mag) Surface Threshold Offset Overrun Length
12 150 ft / 46 m 5,909 ft / 1,801 m 135.40° 122.85° Asphalt 0 ft / 0 m 0 ft / 0 m
30 150 ft / 46 m 5,909 ft / 1,801 m 315.41° 302.86° Asphalt 0 ft / 0 m 0 ft / 0 m

Map

Weather


0- 5 10 15 20 25 30 35+ Temperature / ° C

Clouds and Precipitation
Forecast for 2017-12-19 00:00 UTC. Updated an hour ago

Ground ~20,000 ft ~40,000 ft Winds

METAR

KPTV 181956Z AUTO 28003KT 10SM CLR 16/M01 A3020 RMK AO2 SLP241 T01561011

TAF

Not found

Frequencies

Recorded 134.62 MHz AWOS 3
Approach 120.50 MHz BAKERSFIELD APP/DEP
Unicom 122.80 MHz CTAF/UNICOM
Warning: Do not use this data for real-world aviation or navigation. No guarantee of current accuracy is given.